Hauptseite
METAR-TAF:

METAR-TAF

Flughäfen :

Flughafen Palma de Mallorca

Palma, Spanien

Breite: 39-33N, Länge: 002-44E, Höhe: 4 m

Beobachtung

Neuester Wetterbericht von vor 33 Minuten, um 10:30 UTC
Wind 1 kt aus Ost/Südost
Temperatur 20°C
Luftfeuchtigkeit 49%
Luftdruck 1025 hPa
Sichtweite 10 km oder mehr
Leicht bewölkt in der Höhe von 3000 ft

METAR: LEPA 081030Z 12001KT 9999 FEW030 20/09 Q1025 NOSIG

Zeit: 13:03 (11:03 UTC)

Prognose

Neuester Wetterbericht von vor 6 Stunden und 3 Minuten, um 05:00 UTC
Gültige Prognose vom 08 um 06 UTC bis 09 um 06 UTC
Wind 5 kt aus Nord/Nordost
Sichtweite 10 km oder mehr
Leicht bewölkt in der Höhe von 3000 ft
Übergehend zu
vom 08 um 10 UTC bis 08 um 12 UTC
Wind 10 kt aus Südwest
Übergehend zu
vom 08 um 18 UTC bis 08 um 20 UTC
Wind 5 kt aus Nord/Nordost

TAF: LEPA 080500Z 0806/0906 03005KT 9999 FEW030 TX21/0812Z TN08/0806Z BECMG 0810/0812 22010KT BECMG 0818/0820 03005KT

Wetterbeobachtungen und Prognosen von mehr als 4000 Flughäfen (METAR und TAF Bericht).

Die verfügbaren Stationen werden durch gelbe und rote Markierungen auf der Karte dargestellt.

Führen Sie die Maus auf sie, um den Namen der Station zu sehen.

Darauf klicken, um die Beobachtung von Wetterbeobachtungen und Prognosen zu sehen.

Um die Karte zu ändern : klicken Sie auf den grünen Tasten mit einem schwarzen Kreuz Zum Vergrößern, auf den grünen Button mit einem Gedankenstrich zu verkleinern, oder auf die grünen Pfeile für benachbarte Karten.


METAR-TAF: